Edwardsville, Virginia
Current Conditions -  °F | °C
As of 10:07 PM on Tuesday 21 Oct 2014 (Local Time) from KNUI Reporting Station
Overcast Overcast  
Wind Chill: 57°   Ceiling: 4900
Heat Index: 57°   Visibility: 10mi
Dew Point: 51°   Wind: 6mph
Humidity: 81%   Direction: NA
Pressure: 29.88"   Gusts: NA
Location:  37.91°N, 76.37°W
Report Text: KNUI 220207Z AUTO VRB05KT 10SM SCT012 BKN049 OVC095 14/11 A2988 RMK AO2 T01390106
Loading
Personal Weather Stations






























Interactive Weather Map
Tropical Storm Tracking
New forecast layout! Learn more

10-Day Weather Forecast

Advertisements
Track Severe Weather on mobile